Time;durP1;ratioP1;P1;durP2;ratioP2;P2;SDS_P1;SDS_P2;PMS_P1;PMS_P2;Temp;Humidity;BMP_temperature;BMP_pressure;BME280_temperature;BME280_humidity;BME280_pressure;Samples;Min_cycle;Max_cycle;Signal;HPM_P1;HPM_P2
2024/02/08 00:02:32;;;;;;;174.02;72.10;;;;;;;;;;10529280;28;21016;-84
2024/02/08 00:07:36;;;;;;;170.40;70.75;;;;;;;;;;10516528;28;20436;-84
2024/02/08 00:12:41;;;;;;;178.67;71.73;;;;;;;;;;10522958;28;20558;-85
2024/02/08 00:17:46;;;;;;;181.48;72.97;;;;;;;;;;10517616;28;20404;-84
2024/02/08 00:22:52;;;;;;;177.55;72.93;;;;;;;;;;10513505;28;20461;-83
2024/02/08 00:27:54;;;;;;;168.60;73.40;;;;;;;;;;10516506;28;20396;-85
2024/02/08 00:32:56;;;;;;;175.35;72.07;;;;;;;;;;10514592;28;20827;-83
2024/02/08 00:38:01;;;;;;;176.40;72.43;;;;;;;;;;10515380;28;20480;-84
2024/02/08 00:43:06;;;;;;;172.43;69.35;;;;;;;;;;10514979;28;20525;-85
2024/02/08 00:48:08;;;;;;;164.70;69.63;;;;;;;;;;10513816;28;20463;-85
2024/02/08 00:53:12;;;;;;;167.93;70.28;;;;;;;;;;10515085;28;20497;-85
2024/02/08 00:58:15;;;;;;;177.30;70.65;;;;;;;;;;10513041;28;20458;-83
2024/02/08 01:03:18;;;;;;;171.38;69.93;;;;;;;;;;10523236;28;20875;-84
2024/02/08 01:08:22;;;;;;;167.85;70.03;;;;;;;;;;10518611;28;20401;-83
2024/02/08 01:13:26;;;;;;;173.63;70.70;;;;;;;;;;10518392;28;20469;-83
2024/02/08 01:18:29;;;;;;;163.57;70.35;;;;;;;;;;10517648;28;20402;-85
2024/02/08 01:23:33;;;;;;;157.80;66.47;;;;;;;;;;10517950;28;20807;-85
2024/02/08 01:28:35;;;;;;;157.38;67.10;;;;;;;;;;10519366;28;20473;-85
2024/02/08 01:33:38;;;;;;;170.63;66.60;;;;;;;;;;10528057;22;20483;-85
2024/02/08 01:38:42;;;;;;;163.52;68.07;;;;;;;;;;10517404;28;20409;-85
2024/02/08 01:43:44;;;;;;;167.73;69.43;;;;;;;;;;10525362;28;20420;-84
2024/02/08 01:48:47;;;;;;;168.47;69.13;;;;;;;;;;10522254;28;20461;-84
2024/02/08 01:53:53;;;;;;;163.30;68.50;;;;;;;;;;10519575;28;21974;-84
2024/02/08 01:58:58;;;;;;;167.85;69.93;;;;;;;;;;10529052;28;21144;-84
2024/02/08 02:04:00;;;;;;;173.43;69.95;;;;;;;;;;10520851;28;20471;-85
2024/02/08 02:09:04;;;;;;;155.85;67.82;;;;;;;;;;10525439;28;20495;-84
2024/02/08 02:14:07;;;;;;;163.75;68.88;;;;;;;;;;10534553;28;20420;-84
2024/02/08 02:19:10;;;;;;;162.90;67.20;;;;;;;;;;10533568;28;20488;-85
2024/02/08 02:24:14;;;;;;;164.70;67.95;;;;;;;;;;10526318;28;20402;-85
2024/02/08 02:29:21;;;;;;;159.03;67.73;;;;;;;;;;10524639;28;20573;-83
2024/02/08 02:34:25;;;;;;;153.75;66.25;;;;;;;;;;10517744;28;20438;-84
2024/02/08 02:39:31;;;;;;;156.50;67.43;;;;;;;;;;10523767;28;20429;-85
2024/02/08 02:44:34;;;;;;;156.18;68.22;;;;;;;;;;10517125;28;20491;-85
2024/02/08 02:49:37;;;;;;;162.90;66.72;;;;;;;;;;10515310;28;20939;-84
2024/02/08 02:54:42;;;;;;;157.57;65.03;;;;;;;;;;10521041;28;20446;-84
2024/02/08 02:59:44;;;;;;;164.65;65.72;;;;;;;;;;10532296;28;20952;-84
2024/02/08 03:04:47;;;;;;;161.38;66.47;;;;;;;;;;10518020;28;20406;-85
2024/02/08 03:09:52;;;;;;;163.17;67.63;;;;;;;;;;10525356;28;20510;-85
2024/02/08 03:15:00;;;;;;;145.32;64.95;;;;;;;;;;10524514;28;20416;-85
2024/02/08 03:20:04;;;;;;;159.68;64.25;;;;;;;;;;10524141;28;20405;-84
2024/02/08 03:25:14;;;;;;;162.67;67.03;;;;;;;;;;10506864;28;20394;-85
2024/02/08 03:30:20;;;;;;;154.60;64.97;;;;;;;;;;10507138;28;20401;-84
2024/02/08 03:35:27;;;;;;;152.17;64.20;;;;;;;;;;10512901;28;20464;-85
2024/02/08 03:40:32;;;;;;;154.05;64.32;;;;;;;;;;10524552;28;20406;-84
2024/02/08 03:45:39;;;;;;;154.10;63.85;;;;;;;;;;10535844;28;20431;-84
2024/02/08 03:50:42;;;;;;;150.88;65.07;;;;;;;;;;10529123;28;21060;-85
2024/02/08 03:55:47;;;;;;;152.13;66.28;;;;;;;;;;10529824;28;20419;-83
2024/02/08 04:00:53;;;;;;;157.32;66.43;;;;;;;;;;10533595;28;20523;-85
2024/02/08 04:06:03;;;;;;;147.82;62.30;;;;;;;;;;10514958;28;20946;-85
2024/02/08 04:53:44;;;;;;;157.65;66.38;;;;;;;;;;10522325;28;20410;-85
2024/02/08 04:58:48;;;;;;;152.07;64.53;;;;;;;;;;10519488;28;20411;-85
2024/02/08 05:03:51;;;;;;;149.82;62.90;;;;;;;;;;10524005;28;20404;-84
2024/02/08 05:08:57;;;;;;;155.32;65.50;;;;;;;;;;10533167;28;20431;-84
2024/02/08 05:14:01;;;;;;;157.48;67.07;;;;;;;;;;10528756;28;20475;-84
2024/02/08 05:19:04;;;;;;;156.80;65.10;;;;;;;;;;10522002;28;20406;-85
2024/02/08 05:24:07;;;;;;;150.40;63.55;;;;;;;;;;10517285;28;20489;-84
2024/02/08 05:29:12;;;;;;;162.43;65.63;;;;;;;;;;10502334;28;20466;-84
2024/02/08 05:34:15;;;;;;;156.10;63.78;;;;;;;;;;10515557;28;20426;-84
2024/02/08 05:39:23;;;;;;;156.60;67.55;;;;;;;;;;10511703;28;20398;-85
2024/02/08 05:44:29;;;;;;;180.57;69.33;;;;;;;;;;10506326;28;20441;-84
2024/02/08 05:49:31;;;;;;;169.98;69.90;;;;;;;;;;10516376;28;20473;-85
2024/02/08 05:54:36;;;;;;;161.73;66.07;;;;;;;;;;10515946;28;20509;-85
2024/02/08 05:59:40;;;;;;;172.25;68.78;;;;;;;;;;10531096;28;20404;-85
2024/02/08 06:04:49;;;;;;;165.20;68.95;;;;;;;;;;10514584;28;20406;-86
2024/02/08 06:10:07;;;;;;;167.05;68.32;;;;;;;;;;10524774;28;20762;-85
2024/02/08 06:15:24;;;;;;;168.47;68.13;;;;;;;;;;10525501;28;21397;-86
2024/02/08 06:20:33;;;;;;;155.37;66.07;;;;;;;;;;10521927;28;20453;-86
2024/02/08 06:25:36;;;;;;;160.68;65.80;;;;;;;;;;10520326;28;20474;-86
2024/02/08 06:30:46;;;;;;;163.10;65.57;;;;;;;;;;10519982;28;20400;-87
2024/02/08 06:35:51;;;;;;;157.50;66.68;;;;;;;;;;10534002;28;20420;-88
2024/02/08 06:40:55;;;;;;;160.95;66.75;;;;;;;;;;10526054;28;20456;-89
2024/02/08 06:46:14;;;;;;;155.38;66.03;;;;;;;;;;10518828;28;20830;-88
2024/02/08 07:39:34;;;;;;;170.53;68.37;;;;;;;;;;10509763;28;20388;-85
2024/02/08 07:44:39;;;;;;;160.40;68.80;;;;;;;;;;10519738;28;20436;-85
2024/02/08 07:49:42;;;;;;;155.50;65.72;;;;;;;;;;10521948;28;20398;-85
2024/02/08 07:54:46;;;;;;;145.27;63.47;;;;;;;;;;10513952;28;20421;-86
2024/02/08 07:59:48;;;;;;;136.18;60.22;;;;;;;;;;10523763;28;20406;-86
2024/02/08 08:04:55;;;;;;;146.38;64.10;;;;;;;;;;10510406;28;20471;-86
2024/02/08 08:10:07;;;;;;;151.97;62.33;;;;;;;;;;10514791;28;20775;-85
2024/02/08 08:15:16;;;;;;;152.60;62.80;;;;;;;;;;10521865;28;20479;-86
2024/02/08 09:57:02;;;;;;;172.60;72.82;;;;;;;;;;12942333;22;2121220;-85
2024/02/08 10:02:20;;;;;;;176.15;72.85;;;;;;;;;;12909160;23;20631;-85
2024/02/08 10:07:33;;;;;;;170.37;71.83;;;;;;;;;;12911868;23;20388;-85
2024/02/08 10:12:51;;;;;;;175.10;75.28;;;;;;;;;;12910784;23;20450;-84
2024/02/08 10:18:03;;;;;;;186.82;79.80;;;;;;;;;;12928412;23;20368;-85
2024/02/08 10:23:33;;;;;;;170.82;73.97;;;;;;;;;;12911818;23;20446;-86
2024/02/08 10:28:33;;;;;;;174.47;71.60;;;;;;;;;;12909727;23;20815;-85
2024/02/08 10:33:37;;;;;;;169.85;70.25;;;;;;;;;;12910571;23;20728;-86
2024/02/08 10:38:55;;;;;;;167.80;69.68;;;;;;;;;;12911241;23;20408;-86
2024/02/08 10:43:59;;;;;;;171.02;70.25;;;;;;;;;;12909829;23;20463;-86
2024/02/08 10:49:02;;;;;;;170.60;71.72;;;;;;;;;;12908298;23;20388;-86
2024/02/08 10:54:14;;;;;;;174.90;73.65;;;;;;;;;;12909593;23;20376;-85
2024/02/08 10:59:39;;;;;;;160.13;66.72;;;;;;;;;;12909323;23;20442;-85
2024/02/08 11:04:41;;;;;;;172.02;69.70;;;;;;;;;;12909142;23;20376;-84
2024/02/08 11:09:45;;;;;;;155.45;65.72;;;;;;;;;;12910086;23;20385;-85
2024/02/08 11:14:53;;;;;;;146.45;63.78;;;;;;;;;;12908614;23;20380;-87
2024/02/08 11:19:57;;;;;;;147.20;64.33;;;;;;;;;;12908760;23;20926;-85
2024/02/08 11:25:09;;;;;;;155.37;62.83;;;;;;;;;;12909866;23;20495;-86
2024/02/08 11:30:13;;;;;;;148.75;61.17;;;;;;;;;;12908306;23;20805;-84
2024/02/08 11:35:21;;;;;;;149.95;62.28;;;;;;;;;;12908906;23;20365;-86
2024/02/08 11:40:28;;;;;;;146.50;62.60;;;;;;;;;;12908347;23;20423;-85
2024/02/08 11:45:35;;;;;;;140.02;60.85;;;;;;;;;;12907369;23;20372;-87
2024/02/08 11:50:37;;;;;;;146.02;57.90;;;;;;;;;;12909173;23;20384;-86
2024/02/08 11:55:44;;;;;;;141.03;60.80;;;;;;;;;;12908992;23;20388;-84
2024/02/08 12:00:50;;;;;;;140.77;58.20;;;;;;;;;;12906501;23;20447;-85
2024/02/08 12:05:54;;;;;;;137.70;58.87;;;;;;;;;;12909005;23;20377;-86
2024/02/08 12:10:56;;;;;;;124.28;53.55;;;;;;;;;;12908941;23;20812;-86
2024/02/08 12:16:01;;;;;;;127.55;51.40;;;;;;;;;;12908605;23;20380;-87
2024/02/08 12:21:07;;;;;;;124.00;50.33;;;;;;;;;;12936770;23;20435;-86
2024/02/08 12:26:13;;;;;;;121.30;49.13;;;;;;;;;;12919116;23;20364;-89
2024/02/08 12:31:17;;;;;;;118.35;49.90;;;;;;;;;;12912483;23;20372;-88
2024/02/08 12:36:22;;;;;;;123.82;52.97;;;;;;;;;;12933652;23;20840;-88
2024/02/08 12:41:25;;;;;;;125.43;52.90;;;;;;;;;;12912828;23;20836;-88
2024/02/08 12:46:29;;;;;;;125.95;53.55;;;;;;;;;;12913713;23;20392;-89
2024/02/08 12:51:31;;;;;;;130.85;55.17;;;;;;;;;;12916564;23;20372;-88
2024/02/08 12:56:36;;;;;;;133.23;52.77;;;;;;;;;;12917913;23;20434;-88
2024/02/08 13:01:44;;;;;;;118.93;51.73;;;;;;;;;;12910731;23;20442;-84
2024/02/08 13:06:49;;;;;;;119.72;52.75;;;;;;;;;;12907159;23;20457;-85
2024/02/08 13:11:51;;;;;;;120.57;52.47;;;;;;;;;;12914621;23;20381;-86
2024/02/08 13:16:57;;;;;;;118.97;50.10;;;;;;;;;;12919342;23;20364;-86
2024/02/08 13:22:00;;;;;;;121.97;52.17;;;;;;;;;;12919253;23;20360;-86
2024/02/08 13:27:03;;;;;;;123.33;52.67;;;;;;;;;;12919956;23;20403;-87
2024/02/08 13:32:07;;;;;;;118.68;50.33;;;;;;;;;;12921716;23;20856;-87
2024/02/08 13:37:15;;;;;;;106.47;47.17;;;;;;;;;;12919627;23;20441;-87
2024/02/08 13:42:19;;;;;;;125.77;52.50;;;;;;;;;;12921538;23;20454;-86
2024/02/08 13:47:25;;;;;;;124.10;54.17;;;;;;;;;;12918817;23;20423;-87
2024/02/08 13:52:30;;;;;;;124.43;53.23;;;;;;;;;;12938182;23;20376;-87
2024/02/08 13:57:32;;;;;;;116.30;50.63;;;;;;;;;;12940436;23;20514;-89
2024/02/08 14:02:39;;;;;;;113.43;48.57;;;;;;;;;;12920068;23;20368;-85
2024/02/08 14:07:42;;;;;;;110.57;48.45;;;;;;;;;;12916740;23;20820;-83
2024/02/08 14:12:48;;;;;;;114.50;49.20;;;;;;;;;;12916135;23;20419;-84
2024/02/08 14:17:55;;;;;;;112.32;49.42;;;;;;;;;;12915016;23;20361;-84
2024/02/08 14:23:00;;;;;;;108.90;47.25;;;;;;;;;;12908987;23;20403;-84
2024/02/08 14:28:03;;;;;;;103.65;46.42;;;;;;;;;;12903705;23;20388;-84
2024/02/08 14:33:07;;;;;;;109.68;45.70;;;;;;;;;;12904392;23;20864;-84
2024/02/08 14:38:09;;;;;;;98.63;43.63;;;;;;;;;;12906057;23;20388;-84
2024/02/08 14:43:13;;;;;;;94.43;44.42;;;;;;;;;;12907179;23;20434;-86
2024/02/08 14:48:18;;;;;;;112.43;48.20;;;;;;;;;;12912208;23;20377;-85
2024/02/08 14:53:22;;;;;;;113.00;49.83;;;;;;;;;;12910171;23;20650;-85
2024/02/08 14:58:33;;;;;;;111.93;49.05;;;;;;;;;;12905777;23;20411;-85
2024/02/08 15:03:52;;;;;;;116.78;49.47;;;;;;;;;;12909113;23;20825;-86
2024/02/08 15:09:06;;;;;;;112.57;51.33;;;;;;;;;;12909355;23;20392;-85
2024/02/08 15:14:16;;;;;;;117.70;51.43;;;;;;;;;;12906034;23;20434;-85
2024/02/08 15:19:26;;;;;;;116.65;49.50;;;;;;;;;;12903595;23;20417;-84
2024/02/08 15:24:28;;;;;;;117.60;52.03;;;;;;;;;;12898930;23;20823;-85
2024/02/08 15:29:44;;;;;;;130.73;54.75;;;;;;;;;;12902954;23;20470;-84
2024/02/08 15:40:13;;;;;;;125.93;53.17;;;;;;;;;;12897962;23;20384;-85
2024/02/08 15:45:16;;;;;;;133.30;54.42;;;;;;;;;;12897556;23;20851;-84
2024/02/08 15:50:24;;;;;;;127.20;53.93;;;;;;;;;;12904782;23;20772;-88
2024/02/08 15:55:38;;;;;;;128.45;53.72;;;;;;;;;;12910902;23;20376;-91
2024/02/08 16:19:42;;;;;;;127.55;54.42;;;;;;;;;;12930228;23;20357;-92
2024/02/08 16:24:49;;;;;;;122.20;52.40;;;;;;;;;;12908031;23;20422;-92
2024/02/08 16:29:59;;;;;;;130.25;53.35;;;;;;;;;;12906055;23;20438;-92
2024/02/08 16:35:28;;;;;;;127.87;54.53;;;;;;;;;;12934957;23;20411;-92
2024/02/08 16:40:29;;;;;;;129.43;53.28;;;;;;;;;;12908969;23;20368;-93
2024/02/08 16:45:35;;;;;;;129.27;53.95;;;;;;;;;;12905310;23;20727;-94
2024/02/08 16:50:45;;;;;;;131.88;52.20;;;;;;;;;;12937629;23;20949;-94
2024/02/08 16:55:56;;;;;;;133.70;54.80;;;;;;;;;;12911562;23;20410;-93
2024/02/08 17:01:04;;;;;;;131.50;55.27;;;;;;;;;;12909315;23;20398;-94
2024/02/08 17:06:16;;;;;;;134.63;56.37;;;;;;;;;;12909678;23;20428;-93
2024/02/08 17:11:18;;;;;;;130.98;54.35;;;;;;;;;;12917582;23;20674;-93
2024/02/08 17:16:35;;;;;;;125.97;54.70;;;;;;;;;;12911947;23;20372;-93
2024/02/08 17:21:45;;;;;;;129.05;53.45;;;;;;;;;;12915723;23;20360;-93
2024/02/08 17:26:59;;;;;;;133.80;55.33;;;;;;;;;;12917458;23;20677;-93
2024/02/08 17:32:06;;;;;;;131.70;56.25;;;;;;;;;;12922151;23;20840;-90
2024/02/08 17:37:17;;;;;;;127.70;54.03;;;;;;;;;;12934486;23;20357;-88
2024/02/08 17:42:20;;;;;;;123.72;54.15;;;;;;;;;;12913249;23;20623;-88
2024/02/08 17:47:28;;;;;;;132.07;55.33;;;;;;;;;;12910312;23;20380;-90
2024/02/08 17:52:34;;;;;;;126.95;53.10;;;;;;;;;;12924251;23;20926;-89
2024/02/08 17:57:41;;;;;;;133.80;53.55;;;;;;;;;;12912088;23;20442;-88
2024/02/08 18:02:44;;;;;;;125.20;54.42;;;;;;;;;;12910954;23;20388;-85
2024/02/08 18:07:48;;;;;;;138.52;54.30;;;;;;;;;;12910411;23;20430;-86
2024/02/08 18:12:53;;;;;;;124.43;52.60;;;;;;;;;;12908511;23;23267;-86
2024/02/08 18:17:55;;;;;;;138.97;55.30;;;;;;;;;;12910556;23;20852;-88
2024/02/08 18:23:02;;;;;;;136.87;54.37;;;;;;;;;;12907414;23;20434;-86
2024/02/08 18:28:09;;;;;;;131.40;56.83;;;;;;;;;;12906432;23;20434;-85
2024/02/08 18:33:15;;;;;;;140.60;64.05;;;;;;;;;;12882134;23;20932;-85
2024/02/08 18:38:23;;;;;;;138.80;60.13;;;;;;;;;;12905144;23;20446;-85
2024/02/08 18:43:27;;;;;;;141.98;58.40;;;;;;;;;;12904179;23;20380;-84
2024/02/08 18:48:34;;;;;;;133.80;57.10;;;;;;;;;;12916433;23;20402;-86
2024/02/08 18:53:39;;;;;;;135.90;56.15;;;;;;;;;;12906863;23;20387;-86
2024/02/08 18:58:41;;;;;;;130.07;56.67;;;;;;;;;;12906193;23;20697;-85
2024/02/08 19:03:46;;;;;;;129.93;56.00;;;;;;;;;;12908831;23;20375;-87
2024/02/08 19:08:52;;;;;;;126.68;52.70;;;;;;;;;;12908845;23;20837;-85
2024/02/08 19:13:57;;;;;;;135.43;57.33;;;;;;;;;;12904639;23;20392;-85
2024/02/08 19:19:00;;;;;;;146.10;59.38;;;;;;;;;;12907649;23;20454;-84
2024/02/08 19:24:07;;;;;;;138.37;58.27;;;;;;;;;;12901803;23;20364;-86
2024/02/08 19:29:15;;;;;;;135.95;58.70;;;;;;;;;;12905842;23;20364;-85
2024/02/08 19:34:18;;;;;;;139.35;58.58;;;;;;;;;;12906908;23;20373;-85
2024/02/08 19:39:36;;;;;;;135.68;59.90;;;;;;;;;;12904270;23;20439;-87
2024/02/08 19:44:42;;;;;;;139.05;60.22;;;;;;;;;;12908954;23;20380;-91
2024/02/08 19:49:46;;;;;;;138.23;58.20;;;;;;;;;;12905912;23;20713;-87
2024/02/08 19:54:56;;;;;;;139.10;58.78;;;;;;;;;;12902581;23;20874;-85
2024/02/08 20:00:00;;;;;;;139.80;59.97;;;;;;;;;;12904458;23;20426;-87
2024/02/08 20:05:04;;;;;;;145.45;60.45;;;;;;;;;;12903322;23;20430;-85
2024/02/08 20:10:11;;;;;;;142.70;61.55;;;;;;;;;;12903992;23;20384;-85
2024/02/08 20:15:19;;;;;;;146.03;63.07;;;;;;;;;;12906261;23;20376;-91
2024/02/08 20:20:22;;;;;;;144.87;61.53;;;;;;;;;;12911117;23;20422;-87
2024/02/08 20:25:32;;;;;;;144.35;60.15;;;;;;;;;;12910579;23;20387;-88
2024/02/08 20:30:38;;;;;;;150.50;64.00;;;;;;;;;;12910608;23;20949;-88
2024/02/08 20:35:41;;;;;;;143.50;61.10;;;;;;;;;;12911479;23;20368;-90
2024/02/08 20:40:46;;;;;;;146.55;60.78;;;;;;;;;;12911008;23;20681;-88
2024/02/08 20:45:50;;;;;;;162.32;63.83;;;;;;;;;;12909872;23;20410;-88
2024/02/08 20:50:53;;;;;;;137.70;61.15;;;;;;;;;;12910511;23;20693;-89
2024/02/08 20:55:57;;;;;;;144.03;62.07;;;;;;;;;;12909568;23;20677;-87
2024/02/08 21:01:01;;;;;;;145.13;61.22;;;;;;;;;;12917713;23;20430;-88
2024/02/08 21:06:04;;;;;;;148.40;62.75;;;;;;;;;;12910728;23;20372;-87
2024/02/08 21:11:11;;;;;;;148.73;64.67;;;;;;;;;;12910450;23;20455;-88
2024/02/08 21:16:15;;;;;;;153.83;62.27;;;;;;;;;;12909582;23;20450;-88
2024/02/08 21:21:19;;;;;;;149.63;63.50;;;;;;;;;;12908008;23;20416;-89
2024/02/08 21:26:24;;;;;;;144.07;62.95;;;;;;;;;;12925757;23;20369;-88
2024/02/08 21:31:27;;;;;;;157.02;67.93;;;;;;;;;;12929696;23;20385;-88
2024/02/08 21:36:29;;;;;;;159.43;67.78;;;;;;;;;;12933839;23;20360;-88
2024/02/08 21:41:33;;;;;;;151.03;65.90;;;;;;;;;;12912884;23;20361;-88
2024/02/08 21:46:35;;;;;;;148.82;63.17;;;;;;;;;;12914536;23;20372;-88
2024/02/08 21:51:39;;;;;;;162.55;65.75;;;;;;;;;;12914328;23;20388;-88
2024/02/08 21:56:44;;;;;;;153.25;64.35;;;;;;;;;;12914602;23;20376;-90
2024/02/08 22:01:46;;;;;;;169.23;67.28;;;;;;;;;;12911144;23;20372;-90
2024/02/08 22:06:49;;;;;;;156.50;67.00;;;;;;;;;;12914478;23;21156;-89
2024/02/08 22:11:54;;;;;;;156.70;67.43;;;;;;;;;;12913397;23;20434;-90
2024/02/08 22:16:58;;;;;;;160.18;70.20;;;;;;;;;;12913700;23;20378;-91
2024/02/08 22:22:00;;;;;;;155.95;66.93;;;;;;;;;;12915166;23;20670;-91
2024/02/08 22:27:08;;;;;;;160.75;67.72;;;;;;;;;;12914138;23;20376;-91
2024/02/08 22:32:11;;;;;;;162.63;68.37;;;;;;;;;;12933096;23;20415;-91
2024/02/08 22:37:13;;;;;;;164.32;71.28;;;;;;;;;;12934643;23;20356;-91
2024/02/08 22:42:18;;;;;;;162.82;71.72;;;;;;;;;;12914319;23;20357;-90
2024/02/08 22:47:22;;;;;;;175.00;72.82;;;;;;;;;;12913561;23;20442;-92
2024/02/08 22:52:26;;;;;;;166.65;71.22;;;;;;;;;;12915848;23;20415;-91
2024/02/08 22:57:30;;;;;;;160.70;71.27;;;;;;;;;;12918538;23;20434;-90
2024/02/08 23:02:35;;;;;;;158.20;70.28;;;;;;;;;;12918726;23;20372;-91
2024/02/08 23:07:42;;;;;;;156.27;67.90;;;;;;;;;;12917206;23;20747;-91
2024/02/08 23:12:47;;;;;;;165.45;68.38;;;;;;;;;;12919693;23;20391;-91
2024/02/08 23:17:54;;;;;;;164.80;67.32;;;;;;;;;;12919252;23;20364;-91
2024/02/08 23:22:58;;;;;;;165.18;67.05;;;;;;;;;;12922244;23;20360;-91
2024/02/08 23:28:02;;;;;;;154.38;64.85;;;;;;;;;;12921258;23;20387;-91
2024/02/08 23:33:08;;;;;;;149.33;60.63;;;;;;;;;;12920866;23;20395;-90
2024/02/08 23:38:10;;;;;;;139.95;61.38;;;;;;;;;;12919883;23;20365;-91
2024/02/08 23:43:16;;;;;;;155.15;62.42;;;;;;;;;;12920395;23;20420;-90
2024/02/08 23:48:21;;;;;;;147.97;59.60;;;;;;;;;;12920438;23;20454;-90
2024/02/08 23:53:25;;;;;;;136.20;56.97;;;;;;;;;;12920289;23;20388;-90
2024/02/08 23:58:29;;;;;;;143.70;59.72;;;;;;;;;;12919079;23;20360;-89
